sensor_id;sensor_type;location;lat;lon;timestamp;pressure;altitude;pressure_sealevel;temperature;humidity
31403;BME280;18039;52.188;21.024;2023-01-29T00:02:10;78705.78;;;-141.45;71.79
31403;BME280;18039;52.188;21.024;2023-01-29T00:04:37;78709.84;;;-141.45;72.41
31403;BME280;18039;52.188;21.024;2023-01-29T00:07:04;78705.78;;;-141.45;73.54
31403;BME280;18039;52.188;21.024;2023-01-29T00:09:31;78705.78;;;-141.45;74.43
31403;BME280;18039;52.188;21.024;2023-01-29T00:11:58;78717.94;;;-141.45;75.46
31403;BME280;18039;52.188;21.024;2023-01-29T00:14:26;78697.66;;;-141.45;74.67
31403;BME280;18039;52.188;21.024;2023-01-29T00:16:53;78709.84;;;-141.45;74.65
31403;BME280;18039;52.188;21.024;2023-01-29T00:19:20;78717.94;;;-141.45;75.53
31403;BME280;18039;52.188;21.024;2023-01-29T00:21:47;78724.03;;;-141.45;76.13
31403;BME280;18039;52.188;21.024;2023-01-29T00:24:15;78705.78;;;-141.45;75.81
31403;BME280;18039;52.188;21.024;2023-01-29T00:26:42;78705.78;;;-141.45;75.75
31403;BME280;18039;52.188;21.024;2023-01-29T00:29:09;78697.66;;;-141.45;75.88
31403;BME280;18039;52.188;21.024;2023-01-29T00:31:36;78709.84;;;-141.45;75.52
31403;BME280;18039;52.188;21.024;2023-01-29T00:34:06;78701.72;;;-141.45;75.22
31403;BME280;18039;52.188;21.024;2023-01-29T00:36:33;78717.94;;;-141.45;75.66
31403;BME280;18039;52.188;21.024;2023-01-29T00:39:00;78715.94;;;-141.45;75.27
31403;BME280;18039;52.188;21.024;2023-01-29T00:41:36;78713.91;;;-141.45;75.17
31403;BME280;18039;52.188;21.024;2023-01-29T00:44:22;78713.91;;;-141.45;76.02
31403;BME280;18039;52.188;21.024;2023-01-29T00:47:07;78693.63;;;-141.45;75.48
31403;BME280;18039;52.188;21.024;2023-01-29T00:49:53;78705.78;;;-141.45;75.45
31403;BME280;18039;52.188;21.024;2023-01-29T00:52:20;78707.81;;;-141.45;75.87
31403;BME280;18039;52.188;21.024;2023-01-29T00:54:52;78713.91;;;-141.45;76.23
31403;BME280;18039;52.188;21.024;2023-01-29T00:57:19;78705.78;;;-141.45;75.93
31403;BME280;18039;52.188;21.024;2023-01-29T00:59:46;78705.78;;;-141.45;75.56
31403;BME280;18039;52.188;21.024;2023-01-29T01:02:14;78701.72;;;-141.45;75.67
31403;BME280;18039;52.188;21.024;2023-01-29T01:05:00;78705.78;;;-141.45;76.34
31403;BME280;18039;52.188;21.024;2023-01-29T01:07:32;78697.66;;;-141.45;76.21
31403;BME280;18039;52.188;21.024;2023-01-29T01:10:00;78693.63;;;-141.45;75.76
31403;BME280;18039;52.188;21.024;2023-01-29T01:12:51;78697.66;;;-141.45;74.93
31403;BME280;18039;52.188;21.024;2023-01-29T01:15:19;78681.44;;;-141.45;74.67
31403;BME280;18039;52.188;21.024;2023-01-29T01:17:46;78685.50;;;-141.45;75.13
31403;BME280;18039;52.188;21.024;2023-01-29T01:20:15;78677.38;;;-141.45;75.13
31403;BME280;18039;52.188;21.024;2023-01-29T01:22:42;78681.44;;;-141.45;74.58
31403;BME280;18039;52.188;21.024;2023-01-29T01:25:10;78673.31;;;-141.45;74.81
31403;BME280;18039;52.188;21.024;2023-01-29T01:27:37;78685.50;;;-141.45;74.98
31403;BME280;18039;52.188;21.024;2023-01-29T01:30:12;78681.44;;;-141.45;74.54
31403;BME280;18039;52.188;21.024;2023-01-29T01:32:41;78677.38;;;-141.45;74.49
31403;BME280;18039;52.188;21.024;2023-01-29T01:35:09;78681.44;;;-141.45;75.10
31403;BME280;18039;52.188;21.024;2023-01-29T01:37:36;78693.63;;;-141.45;75.45
31403;BME280;18039;52.188;21.024;2023-01-29T01:40:07;78689.56;;;-141.45;76.17
31403;BME280;18039;52.188;21.024;2023-01-29T01:42:46;78679.41;;;-141.45;75.20
31403;BME280;18039;52.188;21.024;2023-01-29T01:45:20;78685.50;;;-141.45;75.67
31403;BME280;18039;52.188;21.024;2023-01-29T01:47:51;78683.47;;;-141.45;75.73
31403;BME280;18039;52.188;21.024;2023-01-29T01:52:50;78677.38;;;-141.45;75.67
31403;BME280;18039;52.188;21.024;2023-01-29T01:55:22;78681.44;;;-141.45;75.20
31403;BME280;18039;52.188;21.024;2023-01-29T01:57:53;78687.53;;;-141.45;75.10
31403;BME280;18039;52.188;21.024;2023-01-29T02:00:24;78697.66;;;-141.45;75.47
31403;BME280;18039;52.188;21.024;2023-01-29T02:02:52;78689.56;;;-141.45;75.98
31403;BME280;18039;52.188;21.024;2023-01-29T02:05:39;78701.72;;;-141.45;76.42
31403;BME280;18039;52.188;21.024;2023-01-29T02:08:31;78689.56;;;-141.45;76.45
31403;BME280;18039;52.188;21.024;2023-01-29T02:11:20;78703.75;;;-141.45;76.78
31403;BME280;18039;52.188;21.024;2023-01-29T02:13:47;78687.53;;;-141.45;76.27
31403;BME280;18039;52.188;21.024;2023-01-29T02:16:24;78701.72;;;-141.45;77.68
31403;BME280;18039;52.188;21.024;2023-01-29T02:18:53;78697.66;;;-141.45;77.26
31403;BME280;18039;52.188;21.024;2023-01-29T02:21:40;78681.44;;;-141.45;77.30
31403;BME280;18039;52.188;21.024;2023-01-29T02:30:22;78693.63;;;-141.45;78.57
31403;BME280;18039;52.188;21.024;2023-01-29T02:33:13;78697.66;;;-141.45;78.33
31403;BME280;18039;52.188;21.024;2023-01-29T02:35:57;78699.69;;;-141.45;78.54
31403;BME280;18039;52.188;21.024;2023-01-29T02:38:58;78693.63;;;-141.45;78.86
31403;BME280;18039;52.188;21.024;2023-01-29T02:41:31;78691.59;;;-141.45;78.44
31403;BME280;18039;52.188;21.024;2023-01-29T02:46:40;78677.38;;;-141.45;79.11
31403;BME280;18039;52.188;21.024;2023-01-29T02:49:30;78673.31;;;-141.45;78.20
31403;BME280;18039;52.188;21.024;2023-01-29T02:52:06;78679.41;;;-141.45;78.57
31403;BME280;18039;52.188;21.024;2023-01-29T02:54:45;78673.31;;;-141.45;78.38
31403;BME280;18039;52.188;21.024;2023-01-29T02:57:27;78669.28;;;-141.45;78.68
31403;BME280;18039;52.188;21.024;2023-01-29T03:00:01;78677.38;;;-141.45;78.70
31403;BME280;18039;52.188;21.024;2023-01-29T03:02:41;78661.16;;;-141.45;77.84
31403;BME280;18039;52.188;21.024;2023-01-29T03:05:21;78665.22;;;-141.45;78.42
31403;BME280;18039;52.188;21.024;2023-01-29T03:07:55;78657.09;;;-141.45;78.99
31403;BME280;18039;52.188;21.024;2023-01-29T03:13:48;78649.00;;;-141.45;78.22
31403;BME280;18039;52.188;21.024;2023-01-29T03:15:51;78655.06;;;-141.45;78.67
31403;BME280;18039;52.188;21.024;2023-01-29T03:18:42;78651.03;;;-141.45;78.85
31403;BME280;18039;52.188;21.024;2023-01-29T03:21:17;78657.09;;;-141.45;78.72
31403;BME280;18039;52.188;21.024;2023-01-29T03:24:05;78653.03;;;-141.45;78.76
31403;BME280;18039;52.188;21.024;2023-01-29T03:26:55;78653.03;;;-141.45;78.95
31403;BME280;18039;52.188;21.024;2023-01-29T03:29:44;78644.94;;;-141.45;78.67
31403;BME280;18039;52.188;21.024;2023-01-29T03:32:49;78644.94;;;-141.45;78.20
31403;BME280;18039;52.188;21.024;2023-01-29T03:35:25;78636.81;;;-141.45;77.65
31403;BME280;18039;52.188;21.024;2023-01-29T03:38:08;78655.06;;;-141.45;78.56
31403;BME280;18039;52.188;21.024;2023-01-29T03:40:50;78644.94;;;-141.45;78.40
31403;BME280;18039;52.188;21.024;2023-01-29T03:43:46;78649.00;;;-141.45;78.24
31403;BME280;18039;52.188;21.024;2023-01-29T03:46:36;78644.94;;;-141.45;78.84
31403;BME280;18039;52.188;21.024;2023-01-29T03:49:20;78653.03;;;-141.45;79.29
31403;BME280;18039;52.188;21.024;2023-01-29T03:52:01;78640.88;;;-141.45;79.04
31403;BME280;18039;52.188;21.024;2023-01-29T03:57:53;78630.72;;;-141.45;77.55
31403;BME280;18039;52.188;21.024;2023-01-29T04:00:40;78649.00;;;-141.45;78.78
31403;BME280;18039;52.188;21.024;2023-01-29T04:03:23;78636.81;;;-141.45;79.70
31403;BME280;18039;52.188;21.024;2023-01-29T04:06:03;78638.84;;;-141.45;79.38
31403;BME280;18039;52.188;21.024;2023-01-29T04:08:49;78630.72;;;-141.45;78.73
31403;BME280;18039;52.188;21.024;2023-01-29T04:11:21;78628.72;;;-141.45;78.78
31403;BME280;18039;52.188;21.024;2023-01-29T04:13:48;78620.59;;;-141.45;77.83
31403;BME280;18039;52.188;21.024;2023-01-29T04:16:28;78630.72;;;-141.45;78.23
31403;BME280;18039;52.188;21.024;2023-01-29T04:19:32;78628.72;;;-141.45;78.28
31403;BME280;18039;52.188;21.024;2023-01-29T04:22:27;78620.59;;;-141.45;78.19
31403;BME280;18039;52.188;21.024;2023-01-29T04:24:51;78624.66;;;-141.45;78.54
31403;BME280;18039;52.188;21.024;2023-01-29T04:27:39;78612.47;;;-141.45;78.48
31403;BME280;18039;52.188;21.024;2023-01-29T04:30:18;78616.53;;;-141.45;78.90
31403;BME280;18039;52.188;21.024;2023-01-29T04:36:06;78616.53;;;-141.45;79.11
31403;BME280;18039;52.188;21.024;2023-01-29T04:41:21;78620.59;;;-141.45;79.33
31403;BME280;18039;52.188;21.024;2023-01-29T04:49:45;78592.19;;;-141.45;78.11
31403;BME280;18039;52.188;21.024;2023-01-29T05:00:43;78584.09;;;-141.45;78.20
31403;BME280;18039;52.188;21.024;2023-01-29T05:03:13;78580.03;;;-141.45;78.47
31403;BME280;18039;52.188;21.024;2023-01-29T05:05:45;78575.97;;;-141.45;78.28
31403;BME280;18039;52.188;21.024;2023-01-29T05:08:16;78588.13;;;-141.45;78.59
31403;BME280;18039;52.188;21.024;2023-01-29T05:10:49;78592.19;;;-141.45;78.62
31403;BME280;18039;52.188;21.024;2023-01-29T05:13:19;78592.19;;;-141.45;78.45
31403;BME280;18039;52.188;21.024;2023-01-29T05:15:53;78596.25;;;-141.45;79.22
31403;BME280;18039;52.188;21.024;2023-01-29T05:18:22;78592.19;;;-141.45;79.02
31403;BME280;18039;52.188;21.024;2023-01-29T05:20:49;78588.13;;;-141.45;79.22
31403;BME280;18039;52.188;21.024;2023-01-29T05:23:19;78582.06;;;-141.45;79.23
31403;BME280;18039;52.188;21.024;2023-01-29T05:25:48;78588.13;;;-141.45;78.89
31403;BME280;18039;52.188;21.024;2023-01-29T05:28:16;78584.09;;;-141.45;78.87
31403;BME280;18039;52.188;21.024;2023-01-29T05:30:53;78578.00;;;-141.45;78.59
31403;BME280;18039;52.188;21.024;2023-01-29T05:33:25;78575.97;;;-141.45;79.01
31403;BME280;18039;52.188;21.024;2023-01-29T05:35:53;78573.94;;;-141.45;79.29
31403;BME280;18039;52.188;21.024;2023-01-29T05:38:22;78567.84;;;-141.45;79.25
31403;BME280;18039;52.188;21.024;2023-01-29T05:40:49;78561.78;;;-141.45;79.34
31403;BME280;18039;52.188;21.024;2023-01-29T05:43:21;78559.75;;;-141.45;78.79
31403;BME280;18039;52.188;21.024;2023-01-29T05:45:56;78555.69;;;-141.45;78.84
31403;BME280;18039;52.188;21.024;2023-01-29T05:48:26;78555.69;;;-141.45;79.19
31403;BME280;18039;52.188;21.024;2023-01-29T05:51:01;78555.69;;;-141.45;78.95
31403;BME280;18039;52.188;21.024;2023-01-29T05:53:30;78555.69;;;-141.45;78.87
31403;BME280;18039;52.188;21.024;2023-01-29T05:56:00;78547.56;;;-141.45;78.66
31403;BME280;18039;52.188;21.024;2023-01-29T05:58:32;78559.75;;;-141.45;78.76
31403;BME280;18039;52.188;21.024;2023-01-29T06:01:15;78555.69;;;-141.45;79.35
31403;BME280;18039;52.188;21.024;2023-01-29T06:03:43;78555.69;;;-141.45;78.87
31403;BME280;18039;52.188;21.024;2023-01-29T06:06:10;78559.75;;;-141.45;79.48
31403;BME280;18039;52.188;21.024;2023-01-29T06:08:38;78555.69;;;-141.45;78.94
31403;BME280;18039;52.188;21.024;2023-01-29T06:11:10;78555.69;;;-141.45;78.98
31403;BME280;18039;52.188;21.024;2023-01-29T06:13:38;78555.69;;;-141.45;79.20
31403;BME280;18039;52.188;21.024;2023-01-29T06:16:06;78559.75;;;-141.45;78.79
31403;BME280;18039;52.188;21.024;2023-01-29T06:18:35;78551.63;;;-141.45;78.43
31403;BME280;18039;52.188;21.024;2023-01-29T06:21:03;78559.75;;;-141.45;78.73
31403;BME280;18039;52.188;21.024;2023-01-29T06:23:31;78555.69;;;-141.45;78.91
31403;BME280;18039;52.188;21.024;2023-01-29T06:26:03;78555.69;;;-141.45;78.67
31403;BME280;18039;52.188;21.024;2023-01-29T06:28:31;78561.78;;;-141.45;78.98
31403;BME280;18039;52.188;21.024;2023-01-29T06:31:02;78559.75;;;-141.45;79.37
31403;BME280;18039;52.188;21.024;2023-01-29T06:33:49;78555.69;;;-141.45;78.92
31403;BME280;18039;52.188;21.024;2023-01-29T06:36:16;78535.41;;;-141.45;78.81
31403;BME280;18039;52.188;21.024;2023-01-29T06:38:44;78535.41;;;-141.45;78.90
31403;BME280;18039;52.188;21.024;2023-01-29T06:41:12;78543.53;;;-141.45;78.90
31403;BME280;18039;52.188;21.024;2023-01-29T06:43:43;78539.47;;;-141.45;78.80
31403;BME280;18039;52.188;21.024;2023-01-29T06:46:10;78535.41;;;-141.45;78.12
31403;BME280;18039;52.188;21.024;2023-01-29T06:48:37;78535.41;;;-141.45;78.43
31403;BME280;18039;52.188;21.024;2023-01-29T06:51:06;78541.50;;;-141.45;78.73
31403;BME280;18039;52.188;21.024;2023-01-29T06:53:35;78535.41;;;-141.45;78.34
31403;BME280;18039;52.188;21.024;2023-01-29T06:56:04;78531.34;;;-141.45;78.82
31403;BME280;18039;52.188;21.024;2023-01-29T06:58:32;78539.47;;;-141.45;78.50
31403;BME280;18039;52.188;21.024;2023-01-29T07:01:06;78527.28;;;-141.45;78.95
31403;BME280;18039;52.188;21.024;2023-01-29T07:03:52;78523.25;;;-141.45;78.81
31403;BME280;18039;52.188;21.024;2023-01-29T07:06:19;78511.06;;;-141.45;78.35
31403;BME280;18039;52.188;21.024;2023-01-29T07:08:47;78502.94;;;-141.45;78.14
31403;BME280;18039;52.188;21.024;2023-01-29T07:11:14;78502.94;;;-141.45;78.08
31403;BME280;18039;52.188;21.024;2023-01-29T07:13:41;78498.91;;;-141.45;78.42
31403;BME280;18039;52.188;21.024;2023-01-29T07:16:08;78482.66;;;-141.45;77.69
31403;BME280;18039;52.188;21.024;2023-01-29T07:18:35;78472.53;;;-141.45;77.50
31403;BME280;18039;52.188;21.024;2023-01-29T07:21:04;78482.66;;;-141.45;77.66
31403;BME280;18039;52.188;21.024;2023-01-29T07:23:33;78486.72;;;-141.45;77.25
31403;BME280;18039;52.188;21.024;2023-01-29T07:26:02;78482.66;;;-141.45;77.26
31403;BME280;18039;52.188;21.024;2023-01-29T07:28:30;78482.66;;;-141.45;77.05
31403;BME280;18039;52.188;21.024;2023-01-29T07:30:58;78474.56;;;-141.45;76.21
31403;BME280;18039;52.188;21.024;2023-01-29T07:33:25;78474.56;;;-141.45;76.55
31403;BME280;18039;52.188;21.024;2023-01-29T07:35:52;78486.72;;;-141.45;76.61
31403;BME280;18039;52.188;21.024;2023-01-29T07:38:19;78490.78;;;-141.45;75.67
31403;BME280;18039;52.188;21.024;2023-01-29T07:40:47;78482.66;;;-141.45;76.09
31403;BME280;18039;52.188;21.024;2023-01-29T07:43:14;78486.72;;;-141.45;76.57
31403;BME280;18039;52.188;21.024;2023-01-29T07:45:42;78474.56;;;-141.45;75.37
31403;BME280;18039;52.188;21.024;2023-01-29T07:48:10;78484.69;;;-141.45;75.74
31403;BME280;18039;52.188;21.024;2023-01-29T07:50:39;78482.66;;;-141.45;75.31
31403;BME280;18039;52.188;21.024;2023-01-29T07:53:13;78470.50;;;-141.45;75.70
31403;BME280;18039;52.188;21.024;2023-01-29T07:55:44;78470.50;;;-141.45;75.22
31403;BME280;18039;52.188;21.024;2023-01-29T07:58:11;78466.44;;;-141.45;75.46
31403;BME280;18039;52.188;21.024;2023-01-29T08:00:38;78450.22;;;-141.45;75.95
31403;BME280;18039;52.188;21.024;2023-01-29T08:03:11;78442.09;;;-141.45;75.97
31403;BME280;18039;52.188;21.024;2023-01-29T08:05:39;78421.81;;;-141.45;74.81
31403;BME280;18039;52.188;21.024;2023-01-29T08:08:06;78436.03;;;-141.45;74.61
31403;BME280;18039;52.188;21.024;2023-01-29T08:10:35;78429.94;;;-141.45;75.02
31403;BME280;18039;52.188;21.024;2023-01-29T08:13:02;78421.81;;;-141.45;74.96
31403;BME280;18039;52.188;21.024;2023-01-29T08:15:30;78421.81;;;-141.45;74.75
31403;BME280;18039;52.188;21.024;2023-01-29T08:18:00;78423.84;;;-141.45;74.30
31403;BME280;18039;52.188;21.024;2023-01-29T08:20:27;78413.72;;;-141.45;74.25
31403;BME280;18039;52.188;21.024;2023-01-29T08:23:02;78421.81;;;-141.45;74.45
31403;BME280;18039;52.188;21.024;2023-01-29T08:25:29;78417.78;;;-141.45;74.35
31403;BME280;18039;52.188;21.024;2023-01-29T08:27:57;78425.88;;;-141.45;74.81
31403;BME280;18039;52.188;21.024;2023-01-29T08:30:27;78425.88;;;-141.45;74.76
31403;BME280;18039;52.188;21.024;2023-01-29T08:32:55;78413.72;;;-141.45;74.67
31403;BME280;18039;52.188;21.024;2023-01-29T08:35:23;78409.66;;;-141.45;74.91
31403;BME280;18039;52.188;21.024;2023-01-29T08:37:56;78413.72;;;-141.45;74.54
31403;BME280;18039;52.188;21.024;2023-01-29T08:40:27;78407.63;;;-141.45;73.74
31403;BME280;18039;52.188;21.024;2023-01-29T08:42:59;78429.94;;;-141.45;74.00
31403;BME280;18039;52.188;21.024;2023-01-29T08:45:32;78415.75;;;-141.45;74.33
31403;BME280;18039;52.188;21.024;2023-01-29T08:47:59;78405.59;;;-141.45;74.39
31403;BME280;18039;52.188;21.024;2023-01-29T08:50:27;78401.53;;;-141.45;74.53
31403;BME280;18039;52.188;21.024;2023-01-29T08:52:58;78381.25;;;-141.45;74.78
31403;BME280;18039;52.188;21.024;2023-01-29T08:55:26;78381.25;;;-141.45;74.10
31403;BME280;18039;52.188;21.024;2023-01-29T08:57:54;78381.25;;;-141.45;73.91
31403;BME280;18039;52.188;21.024;2023-01-29T09:00:23;78377.22;;;-141.45;74.23
31403;BME280;18039;52.188;21.024;2023-01-29T09:02:50;78360.97;;;-141.45;73.83
31403;BME280;18039;52.188;21.024;2023-01-29T09:05:18;78360.97;;;-141.45;73.20
31403;BME280;18039;52.188;21.024;2023-01-29T09:07:45;78352.88;;;-141.45;73.33
31403;BME280;18039;52.188;21.024;2023-01-29T09:10:12;78342.72;;;-141.45;73.61
31403;BME280;18039;52.188;21.024;2023-01-29T09:12:39;78342.72;;;-141.45;73.64
31403;BME280;18039;52.188;21.024;2023-01-29T09:15:08;78322.44;;;-141.45;74.69
31403;BME280;18039;52.188;21.024;2023-01-29T09:17:36;78318.38;;;-141.45;74.48
31403;BME280;18039;52.188;21.024;2023-01-29T09:20:04;78296.09;;;-141.45;73.82
31403;BME280;18039;52.188;21.024;2023-01-29T09:22:34;78287.97;;;-141.45;73.09
31403;BME280;18039;52.188;21.024;2023-01-29T09:25:19;78292.03;;;-141.45;73.71
31403;BME280;18039;52.188;21.024;2023-01-29T09:27:46;78285.94;;;-141.45;73.35
31403;BME280;18039;52.188;21.024;2023-01-29T09:30:13;78292.03;;;-141.45;74.10
31403;BME280;18039;52.188;21.024;2023-01-29T09:32:41;78294.06;;;-141.45;73.94
31403;BME280;18039;52.188;21.024;2023-01-29T09:35:20;78296.09;;;-141.45;74.28
31403;BME280;18039;52.188;21.024;2023-01-29T09:37:48;78300.13;;;-141.45;75.34
31403;BME280;18039;52.188;21.024;2023-01-29T09:43:03;78300.13;;;-141.45;76.33
31403;BME280;18039;52.188;21.024;2023-01-29T09:45:32;78318.38;;;-141.45;76.75
31403;BME280;18039;52.188;21.024;2023-01-29T09:48:02;78316.34;;;-141.45;77.09
31403;BME280;18039;52.188;21.024;2023-01-29T09:50:38;78298.09;;;-141.45;76.65
31403;BME280;18039;52.188;21.024;2023-01-29T09:58:39;78210.91;;;-141.45;74.86
31403;BME280;18039;52.188;21.024;2023-01-29T10:04:11;78206.84;;;-141.45;74.98
31403;BME280;18039;52.188;21.024;2023-01-29T10:07:11;78174.41;;;-141.45;75.25
31403;BME280;18039;52.188;21.024;2023-01-29T10:09:46;78146.00;;;-141.45;75.01
31403;BME280;18039;52.188;21.024;2023-01-29T10:15:05;78121.66;;;-141.45;73.16
31403;BME280;18039;52.188;21.024;2023-01-29T10:17:50;78133.84;;;-141.45;72.64
31403;BME280;18039;52.188;21.024;2023-01-29T10:20:29;78146.00;;;-141.45;74.14
31403;BME280;18039;52.188;21.024;2023-01-29T10:23:29;78154.13;;;-141.45;74.61
31403;BME280;18039;52.188;21.024;2023-01-29T10:26:00;78174.41;;;-141.45;75.82
31403;BME280;18039;52.188;21.024;2023-01-29T10:28:39;78178.44;;;-141.45;76.66
31403;BME280;18039;52.188;21.024;2023-01-29T10:33:41;78186.56;;;-141.45;77.57
31403;BME280;18039;52.188;21.024;2023-01-29T10:36:45;78194.69;;;-141.45;78.25
31403;BME280;18039;52.188;21.024;2023-01-29T10:39:20;78223.06;;;-141.45;79.42
31403;BME280;18039;52.188;21.024;2023-01-29T10:44:49;78214.97;;;-141.45;81.68
31403;BME280;18039;52.188;21.024;2023-01-29T10:50:13;78235.25;;;-141.45;82.54
31403;BME280;18039;52.188;21.024;2023-01-29T10:53:11;78210.91;;;-141.45;82.28
31403;BME280;18039;52.188;21.024;2023-01-29T10:58:37;78245.38;;;-141.45;83.16
31403;BME280;18039;52.188;21.024;2023-01-29T11:01:09;78243.34;;;-141.45;83.45
31403;BME280;18039;52.188;21.024;2023-01-29T11:03:37;78245.38;;;-141.45;83.79
31403;BME280;18039;52.188;21.024;2023-01-29T11:14:22;78210.91;;;-141.45;86.20
31403;BME280;18039;52.188;21.024;2023-01-29T11:16:50;78198.72;;;-141.45;86.19
31403;BME280;18039;52.188;21.024;2023-01-29T11:19:35;78178.44;;;-141.45;85.46
31403;BME280;18039;52.188;21.024;2023-01-29T11:22:03;78166.28;;;-141.45;85.86
31403;BME280;18039;52.188;21.024;2023-01-29T11:24:30;78160.19;;;-141.45;84.88
31403;BME280;18039;52.188;21.024;2023-01-29T11:26:58;78154.13;;;-141.45;84.06
31403;BME280;18039;52.188;21.024;2023-01-29T11:31:57;78150.06;;;-141.45;85.24
31403;BME280;18039;52.188;21.024;2023-01-29T11:34:25;78150.06;;;-141.45;84.83
31403;BME280;18039;52.188;21.024;2023-01-29T11:37:01;78146.00;;;-141.45;85.53
31403;BME280;18039;52.188;21.024;2023-01-29T11:39:30;78133.84;;;-141.45;84.92
31403;BME280;18039;52.188;21.024;2023-01-29T11:41:59;78125.72;;;-141.45;84.52
31403;BME280;18039;52.188;21.024;2023-01-29T11:44:40;78121.66;;;-141.45;84.05
31403;BME280;18039;52.188;21.024;2023-01-29T11:47:16;78113.56;;;-141.45;83.64
31403;BME280;18039;52.188;21.024;2023-01-29T11:49:49;78129.78;;;-141.45;84.26
31403;BME280;18039;52.188;21.024;2023-01-29T11:52:20;78113.56;;;-141.45;83.43
31403;BME280;18039;52.188;21.024;2023-01-29T11:55:34;78101.38;;;-141.45;83.14
31403;BME280;18039;52.188;21.024;2023-01-29T11:57:42;78097.34;;;-141.45;84.15
31403;BME280;18039;52.188;21.024;2023-01-29T12:02:51;78089.22;;;-141.45;83.90
31403;BME280;18039;52.188;21.024;2023-01-29T12:05:23;78107.47;;;-141.45;84.35
31403;BME280;18039;52.188;21.024;2023-01-29T12:07:59;78097.34;;;-141.45;84.24
31403;BME280;18039;52.188;21.024;2023-01-29T12:10:34;78137.91;;;-141.45;84.43
31403;BME280;18039;52.188;21.024;2023-01-29T12:15:38;78133.84;;;-141.45;85.28
31403;BME280;18039;52.188;21.024;2023-01-29T12:18:41;78125.72;;;-141.45;84.95
31403;BME280;18039;52.188;21.024;2023-01-29T12:21:25;78121.66;;;-141.45;85.04
31403;BME280;18039;52.188;21.024;2023-01-29T12:24:21;78123.69;;;-141.45;85.01
31403;BME280;18039;52.188;21.024;2023-01-29T12:26:56;78129.78;;;-141.45;85.17
31403;BME280;18039;52.188;21.024;2023-01-29T12:37:44;78137.91;;;-141.45;85.85
31403;BME280;18039;52.188;21.024;2023-01-29T12:40:17;78117.63;;;-141.45;85.83
31403;BME280;18039;52.188;21.024;2023-01-29T12:42:48;78113.56;;;-141.45;86.91
31403;BME280;18039;52.188;21.024;2023-01-29T12:45:17;78109.50;;;-141.45;86.44
31403;BME280;18039;52.188;21.024;2023-01-29T12:47:55;78101.38;;;-141.45;85.59
31403;BME280;18039;52.188;21.024;2023-01-29T12:50:29;78097.34;;;-141.45;86.01
31403;BME280;18039;52.188;21.024;2023-01-29T12:53:04;78099.34;;;-141.45;86.23
31403;BME280;18039;52.188;21.024;2023-01-29T12:55:39;78103.41;;;-141.45;86.36
31403;BME280;18039;52.188;21.024;2023-01-29T12:58:20;78101.38;;;-141.45;86.38
31403;BME280;18039;52.188;21.024;2023-01-29T13:00:51;78101.38;;;-141.45;86.50
31403;BME280;18039;52.188;21.024;2023-01-29T13:05:59;78105.44;;;-141.45;86.77
31403;BME280;18039;52.188;21.024;2023-01-29T13:08:37;78113.56;;;-141.45;87.32
31403;BME280;18039;52.188;21.024;2023-01-29T13:11:12;78105.44;;;-141.45;87.29
31403;BME280;18039;52.188;21.024;2023-01-29T13:13:46;78129.78;;;-141.45;87.66
31403;BME280;18039;52.188;21.024;2023-01-29T13:16:26;78135.88;;;-141.45;88.01
31403;BME280;18039;52.188;21.024;2023-01-29T13:18:57;78141.94;;;-141.45;88.80
31403;BME280;18039;52.188;21.024;2023-01-29T13:21:30;78137.91;;;-141.45;88.86
31403;BME280;18039;52.188;21.024;2023-01-29T13:24:10;78154.13;;;-141.45;89.75
31403;BME280;18039;52.188;21.024;2023-01-29T13:26:39;78154.13;;;-141.45;90.00
31403;BME280;18039;52.188;21.024;2023-01-29T13:29:28;78154.13;;;-141.45;90.39
31403;BME280;18039;52.188;21.024;2023-01-29T13:31:57;78146.00;;;-141.45;90.69
31403;BME280;18039;52.188;21.024;2023-01-29T13:34:42;78150.06;;;-141.45;91.15
31403;BME280;18039;52.188;21.024;2023-01-29T13:37:17;78150.06;;;-141.45;91.69
31403;BME280;18039;52.188;21.024;2023-01-29T13:39:49;78135.88;;;-141.45;91.44
31403;BME280;18039;52.188;21.024;2023-01-29T13:42:23;78150.06;;;-141.45;91.90
31403;BME280;18039;52.188;21.024;2023-01-29T13:44:55;78154.13;;;-141.45;92.56
31403;BME280;18039;52.188;21.024;2023-01-29T13:47:26;78137.91;;;-141.45;93.13
31403;BME280;18039;52.188;21.024;2023-01-29T13:52:57;78117.63;;;-141.45;92.86
31403;BME280;18039;52.188;21.024;2023-01-29T13:55:35;78117.63;;;-141.45;93.07
31403;BME280;18039;52.188;21.024;2023-01-29T14:00:59;78125.72;;;-141.45;94.19
31403;BME280;18039;52.188;21.024;2023-01-29T14:06:35;78133.84;;;-141.45;95.55
31403;BME280;18039;52.188;21.024;2023-01-29T14:12:00;78150.06;;;-141.45;96.07
31403;BME280;18039;52.188;21.024;2023-01-29T14:17:26;78182.50;;;-141.45;97.02
31403;BME280;18039;52.188;21.024;2023-01-29T14:20:02;78190.63;;;-141.45;97.02
31403;BME280;18039;52.188;21.024;2023-01-29T14:22:30;78194.69;;;-141.45;96.86
31403;BME280;18039;52.188;21.024;2023-01-29T14:25:04;78198.72;;;-141.45;97.33
31403;BME280;18039;52.188;21.024;2023-01-29T14:27:33;78186.56;;;-141.45;97.67
31403;BME280;18039;52.188;21.024;2023-01-29T14:30:06;78186.56;;;-141.45;97.21
31403;BME280;18039;52.188;21.024;2023-01-29T14:32:38;78190.63;;;-141.45;97.67
31403;BME280;18039;52.188;21.024;2023-01-29T14:35:17;78190.63;;;-141.45;97.32
31403;BME280;18039;52.188;21.024;2023-01-29T14:37:50;78182.50;;;-141.45;97.21
31403;BME280;18039;52.188;21.024;2023-01-29T14:40:21;78178.44;;;-141.45;97.12
31403;BME280;18039;52.188;21.024;2023-01-29T14:43:02;78174.41;;;-141.45;97.06
31403;BME280;18039;52.188;21.024;2023-01-29T14:50:49;78174.41;;;-141.45;97.61
31403;BME280;18039;52.188;21.024;2023-01-29T14:56:03;78162.22;;;-141.45;98.17